sensor_id;sensor_type;location;lat;lon;timestamp;P1;durP1;ratioP1;P2;durP2;ratioP2
54853;SDS011;40747;49.480;8.658;2022-10-20T00:01:04;4.88;;;2.90;;
54853;SDS011;40747;49.480;8.658;2022-10-20T00:03:29;8.45;;;3.92;;
54853;SDS011;40747;49.480;8.658;2022-10-20T00:06:04;3.80;;;2.58;;
54853;SDS011;40747;49.480;8.658;2022-10-20T00:08:34;6.70;;;3.72;;
54853;SDS011;40747;49.480;8.658;2022-10-20T00:11:01;5.05;;;3.10;;
54853;SDS011;40747;49.480;8.658;2022-10-20T00:13:26;5.80;;;3.75;;
54853;SDS011;40747;49.480;8.658;2022-10-20T00:15:52;5.78;;;3.55;;
54853;SDS011;40747;49.480;8.658;2022-10-20T00:18:19;6.30;;;3.40;;
54853;SDS011;40747;49.480;8.658;2022-10-20T00:20:45;6.15;;;3.45;;
54853;SDS011;40747;49.480;8.658;2022-10-20T00:23:11;9.35;;;4.03;;
54853;SDS011;40747;49.480;8.658;2022-10-20T00:25:36;6.05;;;3.42;;
54853;SDS011;40747;49.480;8.658;2022-10-20T00:28:01;6.28;;;3.45;;
54853;SDS011;40747;49.480;8.658;2022-10-20T00:30:27;3.88;;;2.47;;
54853;SDS011;40747;49.480;8.658;2022-10-20T00:32:52;7.38;;;3.80;;
54853;SDS011;40747;49.480;8.658;2022-10-20T00:35:17;6.20;;;3.10;;
54853;SDS011;40747;49.480;8.658;2022-10-20T00:37:42;9.25;;;3.50;;
54853;SDS011;40747;49.480;8.658;2022-10-20T00:40:08;5.32;;;3.13;;
54853;SDS011;40747;49.480;8.658;2022-10-20T00:42:34;14.63;;;3.22;;
54853;SDS011;40747;49.480;8.658;2022-10-20T00:44:59;4.63;;;2.70;;
54853;SDS011;40747;49.480;8.658;2022-10-20T00:47:31;7.43;;;3.65;;
54853;SDS011;40747;49.480;8.658;2022-10-20T00:50:02;5.93;;;3.53;;
54853;SDS011;40747;49.480;8.658;2022-10-20T00:52:31;6.53;;;2.78;;
54853;SDS011;40747;49.480;8.658;2022-10-20T00:54:58;5.88;;;3.15;;
54853;SDS011;40747;49.480;8.658;2022-10-20T00:57:24;6.28;;;3.15;;
54853;SDS011;40747;49.480;8.658;2022-10-20T00:59:50;7.20;;;3.38;;
54853;SDS011;40747;49.480;8.658;2022-10-20T01:02:15;5.78;;;2.97;;
54853;SDS011;40747;49.480;8.658;2022-10-20T01:04:40;6.22;;;3.10;;
54853;SDS011;40747;49.480;8.658;2022-10-20T01:07:06;4.93;;;2.85;;
54853;SDS011;40747;49.480;8.658;2022-10-20T01:09:31;6.10;;;2.97;;
54853;SDS011;40747;49.480;8.658;2022-10-20T01:17:30;7.28;;;3.30;;
54853;SDS011;40747;49.480;8.658;2022-10-20T01:25:25;6.22;;;2.63;;
54853;SDS011;40747;49.480;8.658;2022-10-20T01:28:06;5.50;;;3.35;;
54853;SDS011;40747;49.480;8.658;2022-10-20T01:30:34;4.38;;;2.95;;
54853;SDS011;40747;49.480;8.658;2022-10-20T01:36:21;6.10;;;3.28;;
54853;SDS011;40747;49.480;8.658;2022-10-20T01:38:53;5.22;;;3.10;;
54853;SDS011;40747;49.480;8.658;2022-10-20T01:41:34;5.43;;;2.97;;
54853;SDS011;40747;49.480;8.658;2022-10-20T01:44:07;5.93;;;3.10;;
54853;SDS011;40747;49.480;8.658;2022-10-20T01:46:36;6.53;;;3.00;;
54853;SDS011;40747;49.480;8.658;2022-10-20T01:49:04;4.70;;;2.88;;
54853;SDS011;40747;49.480;8.658;2022-10-20T01:51:31;7.70;;;3.20;;
54853;SDS011;40747;49.480;8.658;2022-10-20T01:53:57;6.57;;;2.95;;
54853;SDS011;40747;49.480;8.658;2022-10-20T01:56:25;5.93;;;2.92;;
54853;SDS011;40747;49.480;8.658;2022-10-20T02:04:44;6.10;;;3.45;;
54853;SDS011;40747;49.480;8.658;2022-10-20T02:07:26;8.90;;;3.33;;
54853;SDS011;40747;49.480;8.658;2022-10-20T02:09:54;7.53;;;3.50;;
54853;SDS011;40747;49.480;8.658;2022-10-20T02:12:30;4.88;;;3.38;;
54853;SDS011;40747;49.480;8.658;2022-10-20T02:15:00;7.72;;;3.85;;
54853;SDS011;40747;49.480;8.658;2022-10-20T02:17:26;5.65;;;3.20;;
54853;SDS011;40747;49.480;8.658;2022-10-20T02:19:53;8.60;;;3.47;;
54853;SDS011;40747;49.480;8.658;2022-10-20T02:22:20;7.10;;;2.72;;
54853;SDS011;40747;49.480;8.658;2022-10-20T02:24:47;6.93;;;3.60;;
54853;SDS011;40747;49.480;8.658;2022-10-20T02:27:14;13.25;;;3.78;;
54853;SDS011;40747;49.480;8.658;2022-10-20T02:29:44;6.88;;;2.97;;
54853;SDS011;40747;49.480;8.658;2022-10-20T02:32:14;6.78;;;3.65;;
54853;SDS011;40747;49.480;8.658;2022-10-20T02:34:41;7.43;;;3.75;;
54853;SDS011;40747;49.480;8.658;2022-10-20T02:37:07;7.70;;;3.22;;
54853;SDS011;40747;49.480;8.658;2022-10-20T02:39:33;5.57;;;3.40;;
54853;SDS011;40747;49.480;8.658;2022-10-20T02:41:58;6.13;;;2.95;;
54853;SDS011;40747;49.480;8.658;2022-10-20T02:44:23;4.90;;;3.42;;
54853;SDS011;40747;49.480;8.658;2022-10-20T02:46:49;6.22;;;3.58;;
54853;SDS011;40747;49.480;8.658;2022-10-20T02:49:14;8.98;;;3.85;;
54853;SDS011;40747;49.480;8.658;2022-10-20T02:51:39;6.88;;;4.35;;
54853;SDS011;40747;49.480;8.658;2022-10-20T02:54:04;6.97;;;3.67;;
54853;SDS011;40747;49.480;8.658;2022-10-20T02:56:30;5.28;;;3.45;;
54853;SDS011;40747;49.480;8.658;2022-10-20T02:58:55;6.85;;;3.67;;
54853;SDS011;40747;49.480;8.658;2022-10-20T03:01:20;5.60;;;3.75;;
54853;SDS011;40747;49.480;8.658;2022-10-20T03:03:46;5.43;;;3.05;;
54853;SDS011;40747;49.480;8.658;2022-10-20T03:06:12;10.07;;;3.53;;
54853;SDS011;40747;49.480;8.658;2022-10-20T03:08:39;6.05;;;3.75;;
54853;SDS011;40747;49.480;8.658;2022-10-20T03:11:05;8.00;;;3.58;;
54853;SDS011;40747;49.480;8.658;2022-10-20T03:13:31;8.00;;;4.60;;
54853;SDS011;40747;49.480;8.658;2022-10-20T03:15:56;5.38;;;3.28;;
54853;SDS011;40747;49.480;8.658;2022-10-20T03:18:21;8.60;;;3.42;;
54853;SDS011;40747;49.480;8.658;2022-10-20T03:20:50;7.60;;;4.30;;
54853;SDS011;40747;49.480;8.658;2022-10-20T03:23:16;7.22;;;3.63;;
54853;SDS011;40747;49.480;8.658;2022-10-20T03:25:41;6.15;;;3.90;;
54853;SDS011;40747;49.480;8.658;2022-10-20T03:28:06;8.73;;;3.67;;
54853;SDS011;40747;49.480;8.658;2022-10-20T03:30:32;5.68;;;3.03;;
54853;SDS011;40747;49.480;8.658;2022-10-20T03:32:57;8.70;;;3.90;;
54853;SDS011;40747;49.480;8.658;2022-10-20T03:35:22;5.22;;;3.33;;
54853;SDS011;40747;49.480;8.658;2022-10-20T03:37:47;6.85;;;3.83;;
54853;SDS011;40747;49.480;8.658;2022-10-20T03:40:13;9.43;;;3.70;;
54853;SDS011;40747;49.480;8.658;2022-10-20T03:42:38;7.70;;;3.72;;
54853;SDS011;40747;49.480;8.658;2022-10-20T03:45:03;8.00;;;4.53;;
54853;SDS011;40747;49.480;8.658;2022-10-20T03:47:29;6.68;;;3.40;;
54853;SDS011;40747;49.480;8.658;2022-10-20T03:49:54;6.38;;;3.38;;
54853;SDS011;40747;49.480;8.658;2022-10-20T03:52:20;5.95;;;3.30;;
54853;SDS011;40747;49.480;8.658;2022-10-20T03:54:45;6.80;;;3.70;;
54853;SDS011;40747;49.480;8.658;2022-10-20T03:57:10;5.85;;;3.00;;
54853;SDS011;40747;49.480;8.658;2022-10-20T03:59:35;8.45;;;3.17;;
54853;SDS011;40747;49.480;8.658;2022-10-20T04:02:01;7.60;;;3.55;;
54853;SDS011;40747;49.480;8.658;2022-10-20T04:04:26;6.57;;;3.75;;
54853;SDS011;40747;49.480;8.658;2022-10-20T04:06:52;5.57;;;3.40;;
54853;SDS011;40747;49.480;8.658;2022-10-20T04:09:17;5.07;;;3.20;;
54853;SDS011;40747;49.480;8.658;2022-10-20T04:11:42;6.55;;;3.45;;
54853;SDS011;40747;49.480;8.658;2022-10-20T04:14:07;6.43;;;3.67;;
54853;SDS011;40747;49.480;8.658;2022-10-20T04:16:33;5.53;;;3.40;;
54853;SDS011;40747;49.480;8.658;2022-10-20T04:18:58;5.95;;;3.40;;
54853;SDS011;40747;49.480;8.658;2022-10-20T04:21:23;7.18;;;2.80;;
54853;SDS011;40747;49.480;8.658;2022-10-20T04:23:50;7.82;;;3.20;;
54853;SDS011;40747;49.480;8.658;2022-10-20T04:26:15;10.18;;;3.15;;
54853;SDS011;40747;49.480;8.658;2022-10-20T04:28:41;5.30;;;2.83;;
54853;SDS011;40747;49.480;8.658;2022-10-20T04:31:07;4.70;;;3.20;;
54853;SDS011;40747;49.480;8.658;2022-10-20T04:33:33;4.45;;;3.03;;
54853;SDS011;40747;49.480;8.658;2022-10-20T04:36:09;6.20;;;3.10;;
54853;SDS011;40747;49.480;8.658;2022-10-20T04:38:36;6.35;;;3.28;;
54853;SDS011;40747;49.480;8.658;2022-10-20T04:41:02;6.20;;;4.13;;
54853;SDS011;40747;49.480;8.658;2022-10-20T04:43:28;6.07;;;3.35;;
54853;SDS011;40747;49.480;8.658;2022-10-20T04:45:57;8.70;;;4.32;;
54853;SDS011;40747;49.480;8.658;2022-10-20T04:48:23;7.40;;;4.15;;
54853;SDS011;40747;49.480;8.658;2022-10-20T04:50:58;6.00;;;3.63;;
54853;SDS011;40747;49.480;8.658;2022-10-20T04:53:33;6.18;;;3.35;;
54853;SDS011;40747;49.480;8.658;2022-10-20T04:55:59;9.95;;;3.58;;
54853;SDS011;40747;49.480;8.658;2022-10-20T04:58:25;7.32;;;4.07;;
54853;SDS011;40747;49.480;8.658;2022-10-20T05:00:50;7.18;;;3.20;;
54853;SDS011;40747;49.480;8.658;2022-10-20T05:03:16;9.27;;;4.63;;
54853;SDS011;40747;49.480;8.658;2022-10-20T05:05:43;6.82;;;4.25;;
54853;SDS011;40747;49.480;8.658;2022-10-20T05:08:09;7.72;;;3.63;;
54853;SDS011;40747;49.480;8.658;2022-10-20T05:10:34;9.07;;;4.03;;
54853;SDS011;40747;49.480;8.658;2022-10-20T05:12:59;9.10;;;4.18;;
54853;SDS011;40747;49.480;8.658;2022-10-20T05:15:24;9.35;;;4.85;;
54853;SDS011;40747;49.480;8.658;2022-10-20T05:17:50;10.02;;;4.38;;
54853;SDS011;40747;49.480;8.658;2022-10-20T05:20:15;11.57;;;4.47;;
54853;SDS011;40747;49.480;8.658;2022-10-20T05:22:40;8.10;;;3.83;;
54853;SDS011;40747;49.480;8.658;2022-10-20T05:25:06;12.95;;;4.57;;
54853;SDS011;40747;49.480;8.658;2022-10-20T05:27:31;7.10;;;4.45;;
54853;SDS011;40747;49.480;8.658;2022-10-20T05:29:57;8.82;;;4.45;;
54853;SDS011;40747;49.480;8.658;2022-10-20T05:32:22;7.60;;;4.00;;
54853;SDS011;40747;49.480;8.658;2022-10-20T05:34:47;8.85;;;5.60;;
54853;SDS011;40747;49.480;8.658;2022-10-20T05:37:13;6.90;;;4.07;;
54853;SDS011;40747;49.480;8.658;2022-10-20T05:39:38;10.25;;;4.32;;
54853;SDS011;40747;49.480;8.658;2022-10-20T05:42:03;10.80;;;4.47;;
54853;SDS011;40747;49.480;8.658;2022-10-20T05:44:29;7.25;;;3.72;;
54853;SDS011;40747;49.480;8.658;2022-10-20T05:46:54;10.25;;;5.03;;
54853;SDS011;40747;49.480;8.658;2022-10-20T05:49:19;9.55;;;4.90;;
54853;SDS011;40747;49.480;8.658;2022-10-20T05:51:46;9.00;;;5.15;;
54853;SDS011;40747;49.480;8.658;2022-10-20T05:54:12;7.25;;;4.57;;
54853;SDS011;40747;49.480;8.658;2022-10-20T05:56:38;8.32;;;4.55;;
54853;SDS011;40747;49.480;8.658;2022-10-20T05:59:03;8.27;;;4.22;;
54853;SDS011;40747;49.480;8.658;2022-10-20T06:01:29;14.15;;;5.20;;
54853;SDS011;40747;49.480;8.658;2022-10-20T06:04:14;14.27;;;5.22;;
54853;SDS011;40747;49.480;8.658;2022-10-20T06:06:41;12.70;;;5.13;;
54853;SDS011;40747;49.480;8.658;2022-10-20T06:09:08;8.80;;;5.32;;
54853;SDS011;40747;49.480;8.658;2022-10-20T06:11:34;12.02;;;5.43;;
54853;SDS011;40747;49.480;8.658;2022-10-20T06:14:00;10.25;;;5.40;;
54853;SDS011;40747;49.480;8.658;2022-10-20T06:16:26;9.57;;;4.22;;
54853;SDS011;40747;49.480;8.658;2022-10-20T06:18:51;10.45;;;5.75;;
54853;SDS011;40747;49.480;8.658;2022-10-20T06:23:50;12.02;;;5.50;;
54853;SDS011;40747;49.480;8.658;2022-10-20T06:26:17;10.95;;;6.05;;
54853;SDS011;40747;49.480;8.658;2022-10-20T06:28:44;11.48;;;5.25;;
54853;SDS011;40747;49.480;8.658;2022-10-20T06:31:16;11.05;;;5.75;;
54853;SDS011;40747;49.480;8.658;2022-10-20T06:33:46;11.95;;;5.70;;
54853;SDS011;40747;49.480;8.658;2022-10-20T06:36:12;10.52;;;5.85;;
54853;SDS011;40747;49.480;8.658;2022-10-20T06:38:38;11.50;;;5.53;;
54853;SDS011;40747;49.480;8.658;2022-10-20T06:41:04;8.73;;;5.28;;
54853;SDS011;40747;49.480;8.658;2022-10-20T06:43:31;9.85;;;5.50;;
54853;SDS011;40747;49.480;8.658;2022-10-20T06:45:58;15.82;;;6.22;;
54853;SDS011;40747;49.480;8.658;2022-10-20T06:48:24;23.27;;;7.07;;
54853;SDS011;40747;49.480;8.658;2022-10-20T06:50:54;12.27;;;6.78;;
54853;SDS011;40747;49.480;8.658;2022-10-20T06:53:21;12.85;;;5.97;;
54853;SDS011;40747;49.480;8.658;2022-10-20T06:55:54;16.77;;;6.13;;
54853;SDS011;40747;49.480;8.658;2022-10-20T06:58:25;11.57;;;6.15;;
54853;SDS011;40747;49.480;8.658;2022-10-20T07:00:58;11.57;;;6.10;;
54853;SDS011;40747;49.480;8.658;2022-10-20T07:03:24;8.13;;;4.68;;
54853;SDS011;40747;49.480;8.658;2022-10-20T07:05:49;14.60;;;6.65;;
54853;SDS011;40747;49.480;8.658;2022-10-20T07:08:15;10.35;;;5.40;;
54853;SDS011;40747;49.480;8.658;2022-10-20T07:10:40;8.40;;;5.10;;
54853;SDS011;40747;49.480;8.658;2022-10-20T07:13:05;14.27;;;5.72;;
54853;SDS011;40747;49.480;8.658;2022-10-20T07:15:30;13.50;;;5.63;;
54853;SDS011;40747;49.480;8.658;2022-10-20T07:17:56;13.95;;;6.60;;
54853;SDS011;40747;49.480;8.658;2022-10-20T07:20:21;10.45;;;6.22;;
54853;SDS011;40747;49.480;8.658;2022-10-20T07:22:46;10.88;;;5.88;;
54853;SDS011;40747;49.480;8.658;2022-10-20T07:25:11;10.55;;;5.80;;
54853;SDS011;40747;49.480;8.658;2022-10-20T07:27:37;13.18;;;6.20;;
54853;SDS011;40747;49.480;8.658;2022-10-20T07:30:02;10.80;;;5.88;;
54853;SDS011;40747;49.480;8.658;2022-10-20T07:32:29;16.30;;;6.30;;
54853;SDS011;40747;49.480;8.658;2022-10-20T07:34:55;21.08;;;6.82;;
54853;SDS011;40747;49.480;8.658;2022-10-20T07:37:20;14.98;;;7.40;;
54853;SDS011;40747;49.480;8.658;2022-10-20T07:39:45;7.63;;;5.05;;
54853;SDS011;40747;49.480;8.658;2022-10-20T07:42:11;11.18;;;4.93;;
54853;SDS011;40747;49.480;8.658;2022-10-20T07:44:36;10.82;;;5.43;;
54853;SDS011;40747;49.480;8.658;2022-10-20T07:47:01;11.50;;;4.32;;
54853;SDS011;40747;49.480;8.658;2022-10-20T07:49:26;9.75;;;5.57;;
54853;SDS011;40747;49.480;8.658;2022-10-20T07:51:52;14.77;;;5.90;;
54853;SDS011;40747;49.480;8.658;2022-10-20T07:54:17;11.32;;;5.60;;
54853;SDS011;40747;49.480;8.658;2022-10-20T07:56:42;12.70;;;5.95;;
54853;SDS011;40747;49.480;8.658;2022-10-20T07:59:09;14.98;;;5.47;;
54853;SDS011;40747;49.480;8.658;2022-10-20T08:01:35;9.88;;;4.80;;
54853;SDS011;40747;49.480;8.658;2022-10-20T08:04:01;11.82;;;5.13;;
54853;SDS011;40747;49.480;8.658;2022-10-20T08:06:26;10.90;;;5.32;;
54853;SDS011;40747;49.480;8.658;2022-10-20T08:08:52;9.43;;;4.82;;
54853;SDS011;40747;49.480;8.658;2022-10-20T08:11:18;9.00;;;5.05;;
54853;SDS011;40747;49.480;8.658;2022-10-20T08:13:43;12.60;;;6.65;;
54853;SDS011;40747;49.480;8.658;2022-10-20T08:16:09;10.90;;;5.28;;
54853;SDS011;40747;49.480;8.658;2022-10-20T08:18:36;9.10;;;5.18;;
54853;SDS011;40747;49.480;8.658;2022-10-20T08:21:08;11.52;;;5.78;;
54853;SDS011;40747;49.480;8.658;2022-10-20T08:23:43;9.98;;;4.47;;
54853;SDS011;40747;49.480;8.658;2022-10-20T08:26:11;8.75;;;4.47;;
54853;SDS011;40747;49.480;8.658;2022-10-20T08:28:40;8.90;;;5.03;;
54853;SDS011;40747;49.480;8.658;2022-10-20T08:31:06;8.38;;;4.68;;
54853;SDS011;40747;49.480;8.658;2022-10-20T08:33:31;12.45;;;6.60;;
54853;SDS011;40747;49.480;8.658;2022-10-20T08:36:00;12.15;;;6.47;;
54853;SDS011;40747;49.480;8.658;2022-10-20T08:38:30;8.52;;;5.25;;
54853;SDS011;40747;49.480;8.658;2022-10-20T08:40:56;16.40;;;6.90;;
54853;SDS011;40747;49.480;8.658;2022-10-20T08:43:22;12.70;;;6.13;;
54853;SDS011;40747;49.480;8.658;2022-10-20T08:45:47;9.38;;;6.28;;
54853;SDS011;40747;49.480;8.658;2022-10-20T08:48:19;10.00;;;5.65;;
54853;SDS011;40747;49.480;8.658;2022-10-20T08:50:48;10.93;;;6.45;;
54853;SDS011;40747;49.480;8.658;2022-10-20T08:53:16;12.88;;;6.78;;
54853;SDS011;40747;49.480;8.658;2022-10-20T08:55:44;19.10;;;7.55;;
54853;SDS011;40747;49.480;8.658;2022-10-20T08:58:11;12.20;;;5.68;;
54853;SDS011;40747;49.480;8.658;2022-10-20T09:00:39;12.23;;;6.05;;
54853;SDS011;40747;49.480;8.658;2022-10-20T09:03:25;12.65;;;6.47;;
54853;SDS011;40747;49.480;8.658;2022-10-20T09:05:54;13.60;;;6.93;;
54853;SDS011;40747;49.480;8.658;2022-10-20T09:08:24;10.63;;;5.82;;
54853;SDS011;40747;49.480;8.658;2022-10-20T09:10:52;12.85;;;6.80;;
54853;SDS011;40747;49.480;8.658;2022-10-20T09:13:20;11.95;;;6.80;;
54853;SDS011;40747;49.480;8.658;2022-10-20T09:16:03;12.00;;;6.57;;
54853;SDS011;40747;49.480;8.658;2022-10-20T09:18:29;11.13;;;6.28;;
54853;SDS011;40747;49.480;8.658;2022-10-20T09:21:05;12.27;;;6.78;;
54853;SDS011;40747;49.480;8.658;2022-10-20T09:23:40;13.07;;;6.60;;
54853;SDS011;40747;49.480;8.658;2022-10-20T09:28:42;9.55;;;6.15;;
54853;SDS011;40747;49.480;8.658;2022-10-20T09:31:31;14.63;;;6.30;;
54853;SDS011;40747;49.480;8.658;2022-10-20T09:33:58;11.52;;;6.60;;
54853;SDS011;40747;49.480;8.658;2022-10-20T09:36:25;13.50;;;7.07;;
54853;SDS011;40747;49.480;8.658;2022-10-20T09:38:55;11.45;;;6.47;;
54853;SDS011;40747;49.480;8.658;2022-10-20T09:41:29;13.63;;;6.85;;
54853;SDS011;40747;49.480;8.658;2022-10-20T09:43:57;15.18;;;8.18;;
54853;SDS011;40747;49.480;8.658;2022-10-20T09:46:30;14.10;;;7.95;;
54853;SDS011;40747;49.480;8.658;2022-10-20T09:49:00;18.20;;;7.93;;
54853;SDS011;40747;49.480;8.658;2022-10-20T09:51:26;14.90;;;7.25;;
54853;SDS011;40747;49.480;8.658;2022-10-20T09:53:58;14.48;;;7.63;;
54853;SDS011;40747;49.480;8.658;2022-10-20T09:56:40;14.57;;;6.93;;
54853;SDS011;40747;49.480;8.658;2022-10-20T09:59:08;16.42;;;7.72;;
54853;SDS011;40747;49.480;8.658;2022-10-20T10:04:48;15.25;;;7.38;;
54853;SDS011;40747;49.480;8.658;2022-10-20T10:10:05;12.82;;;6.32;;
54853;SDS011;40747;49.480;8.658;2022-10-20T10:12:52;14.98;;;6.53;;
54853;SDS011;40747;49.480;8.658;2022-10-20T10:15:27;13.18;;;7.22;;
54853;SDS011;40747;49.480;8.658;2022-10-20T10:17:54;16.98;;;7.65;;
54853;SDS011;40747;49.480;8.658;2022-10-20T10:22:45;15.73;;;7.57;;
54853;SDS011;40747;49.480;8.658;2022-10-20T10:25:44;15.25;;;7.97;;
54853;SDS011;40747;49.480;8.658;2022-10-20T10:28:03;11.05;;;6.05;;
54853;SDS011;40747;49.480;8.658;2022-10-20T10:30:33;9.35;;;5.03;;
54853;SDS011;40747;49.480;8.658;2022-10-20T10:33:01;5.80;;;4.00;;
54853;SDS011;40747;49.480;8.658;2022-10-20T10:35:41;7.30;;;3.55;;
54853;SDS011;40747;49.480;8.658;2022-10-20T10:38:10;5.30;;;3.35;;
54853;SDS011;40747;49.480;8.658;2022-10-20T10:40:44;5.78;;;2.90;;
54853;SDS011;40747;49.480;8.658;2022-10-20T10:46:16;7.57;;;3.50;;
54853;SDS011;40747;49.480;8.658;2022-10-20T10:51:31;6.00;;;3.55;;
54853;SDS011;40747;49.480;8.658;2022-10-20T10:54:26;6.25;;;3.25;;
54853;SDS011;40747;49.480;8.658;2022-10-20T10:59:40;4.93;;;3.05;;
54853;SDS011;40747;49.480;8.658;2022-10-20T11:02:17;6.40;;;3.28;;
54853;SDS011;40747;49.480;8.658;2022-10-20T11:07:31;4.53;;;2.63;;
54853;SDS011;40747;49.480;8.658;2022-10-20T11:10:24;5.78;;;3.08;;
54853;SDS011;40747;49.480;8.658;2022-10-20T11:13:17;4.22;;;2.80;;
54853;SDS011;40747;49.480;8.658;2022-10-20T11:15:55;5.00;;;2.60;;
54853;SDS011;40747;49.480;8.658;2022-10-20T11:24:38;6.57;;;2.80;;
54853;SDS011;40747;49.480;8.658;2022-10-20T11:27:09;4.75;;;3.15;;
54853;SDS011;40747;49.480;8.658;2022-10-20T11:34:53;4.22;;;2.60;;
54853;SDS011;40747;49.480;8.658;2022-10-20T11:37:29;5.60;;;3.17;;
54853;SDS011;40747;49.480;8.658;2022-10-20T11:40:42;4.03;;;2.90;;
54853;SDS011;40747;49.480;8.658;2022-10-20T11:43:05;5.03;;;2.92;;
54853;SDS011;40747;49.480;8.658;2022-10-20T11:48:25;4.10;;;2.83;;
54853;SDS011;40747;49.480;8.658;2022-10-20T11:50:59;4.53;;;2.83;;
54853;SDS011;40747;49.480;8.658;2022-10-20T11:59:37;4.70;;;2.78;;
54853;SDS011;40747;49.480;8.658;2022-10-20T12:15:57;5.73;;;3.07;;
54853;SDS011;40747;49.480;8.658;2022-10-20T12:18:27;5.82;;;3.50;;
54853;SDS011;40747;49.480;8.658;2022-10-20T12:20:58;6.20;;;3.15;;
54853;SDS011;40747;49.480;8.658;2022-10-20T12:23:59;7.57;;;3.70;;
54853;SDS011;40747;49.480;8.658;2022-10-20T12:26:37;3.45;;;2.72;;
54853;SDS011;40747;49.480;8.658;2022-10-20T12:29:44;4.85;;;2.78;;
54853;SDS011;40747;49.480;8.658;2022-10-20T12:34:49;5.28;;;3.10;;
54853;SDS011;40747;49.480;8.658;2022-10-20T12:39:54;5.53;;;3.00;;
54853;SDS011;40747;49.480;8.658;2022-10-20T12:44:50;5.67;;;3.40;;
54853;SDS011;40747;49.480;8.658;2022-10-20T12:47:17;3.40;;;2.47;;
54853;SDS011;40747;49.480;8.658;2022-10-20T12:49:54;4.78;;;2.42;;
54853;SDS011;40747;49.480;8.658;2022-10-20T12:52:22;7.63;;;3.38;;
54853;SDS011;40747;49.480;8.658;2022-10-20T12:54:52;4.50;;;3.38;;
54853;SDS011;40747;49.480;8.658;2022-10-20T12:57:30;6.78;;;3.00;;
54853;SDS011;40747;49.480;8.658;2022-10-20T13:00:06;5.50;;;3.13;;
54853;SDS011;40747;49.480;8.658;2022-10-20T13:02:55;3.83;;;2.80;;
54853;SDS011;40747;49.480;8.658;2022-10-20T13:05:24;4.63;;;3.22;;
54853;SDS011;40747;49.480;8.658;2022-10-20T13:10:43;4.40;;;3.03;;
54853;SDS011;40747;49.480;8.658;2022-10-20T13:15:42;4.90;;;2.67;;
54853;SDS011;40747;49.480;8.658;2022-10-20T13:18:15;6.80;;;3.75;;
54853;SDS011;40747;49.480;8.658;2022-10-20T13:21:20;7.97;;;3.95;;
54853;SDS011;40747;49.480;8.658;2022-10-20T13:26:25;3.97;;;2.90;;
54853;SDS011;40747;49.480;8.658;2022-10-20T13:28:52;7.20;;;4.13;;
54853;SDS011;40747;49.480;8.658;2022-10-20T13:39:27;5.82;;;3.15;;
54853;SDS011;40747;49.480;8.658;2022-10-20T13:45:28;5.78;;;3.28;;
54853;SDS011;40747;49.480;8.658;2022-10-20T13:48:06;4.55;;;3.22;;
54853;SDS011;40747;49.480;8.658;2022-10-20T13:50:36;6.57;;;2.85;;
54853;SDS011;40747;49.480;8.658;2022-10-20T13:53:15;6.55;;;3.85;;
54853;SDS011;40747;49.480;8.658;2022-10-20T13:56:06;8.75;;;3.72;;
54853;SDS011;40747;49.480;8.658;2022-10-20T13:58:32;4.22;;;3.17;;
54853;SDS011;40747;49.480;8.658;2022-10-20T14:00:59;4.85;;;3.20;;
54853;SDS011;40747;49.480;8.658;2022-10-20T14:03:28;5.60;;;3.00;;
54853;SDS011;40747;49.480;8.658;2022-10-20T14:05:55;3.72;;;2.50;;
54853;SDS011;40747;49.480;8.658;2022-10-20T14:08:21;7.93;;;2.85;;
54853;SDS011;40747;49.480;8.658;2022-10-20T14:13:21;4.95;;;3.47;;
54853;SDS011;40747;49.480;8.658;2022-10-20T14:15:51;6.05;;;3.38;;
54853;SDS011;40747;49.480;8.658;2022-10-20T14:18:20;5.95;;;3.15;;
54853;SDS011;40747;49.480;8.658;2022-10-20T14:21:34;5.88;;;3.08;;
54853;SDS011;40747;49.480;8.658;2022-10-20T14:23:42;8.73;;;3.15;;
54853;SDS011;40747;49.480;8.658;2022-10-20T14:26:12;3.80;;;3.17;;
54853;SDS011;40747;49.480;8.658;2022-10-20T14:28:46;5.10;;;3.15;;
54853;SDS011;40747;49.480;8.658;2022-10-20T14:31:14;4.88;;;3.17;;
54853;SDS011;40747;49.480;8.658;2022-10-20T14:33:41;5.20;;;3.20;;
54853;SDS011;40747;49.480;8.658;2022-10-20T14:36:15;3.55;;;2.67;;
54853;SDS011;40747;49.480;8.658;2022-10-20T14:38:47;3.95;;;3.25;;
54853;SDS011;40747;49.480;8.658;2022-10-20T14:41:27;5.05;;;3.45;;
54853;SDS011;40747;49.480;8.658;2022-10-20T14:43:56;7.78;;;3.08;;
54853;SDS011;40747;49.480;8.658;2022-10-20T14:46:31;7.20;;;2.85;;
54853;SDS011;40747;49.480;8.658;2022-10-20T14:48:59;5.00;;;3.30;;
54853;SDS011;40747;49.480;8.658;2022-10-20T14:57:00;6.47;;;3.17;;
54853;SDS011;40747;49.480;8.658;2022-10-20T14:59:30;5.70;;;3.10;;
54853;SDS011;40747;49.480;8.658;2022-10-20T15:02:12;4.50;;;2.80;;
54853;SDS011;40747;49.480;8.658;2022-10-20T15:04:43;7.07;;;3.55;;
54853;SDS011;40747;49.480;8.658;2022-10-20T15:07:11;4.63;;;3.10;;
54853;SDS011;40747;49.480;8.658;2022-10-20T15:09:44;6.07;;;3.28;;
54853;SDS011;40747;49.480;8.658;2022-10-20T15:12:15;5.32;;;2.78;;
54853;SDS011;40747;49.480;8.658;2022-10-20T15:14:43;4.13;;;2.80;;
54853;SDS011;40747;49.480;8.658;2022-10-20T15:23:10;4.82;;;3.30;;
54853;SDS011;40747;49.480;8.658;2022-10-20T15:28:19;4.60;;;2.90;;
54853;SDS011;40747;49.480;8.658;2022-10-20T15:30:49;6.90;;;4.03;;
54853;SDS011;40747;49.480;8.658;2022-10-20T15:33:14;5.70;;;3.75;;
54853;SDS011;40747;49.480;8.658;2022-10-20T15:35:39;5.80;;;3.72;;
54853;SDS011;40747;49.480;8.658;2022-10-20T15:38:09;9.63;;;3.85;;
54853;SDS011;40747;49.480;8.658;2022-10-20T15:40:34;6.05;;;3.63;;
54853;SDS011;40747;49.480;8.658;2022-10-20T15:42:59;7.10;;;4.28;;
54853;SDS011;40747;49.480;8.658;2022-10-20T15:45:25;5.25;;;3.85;;
54853;SDS011;40747;49.480;8.658;2022-10-20T15:47:55;7.28;;;4.18;;
54853;SDS011;40747;49.480;8.658;2022-10-20T15:50:20;6.75;;;4.32;;
54853;SDS011;40747;49.480;8.658;2022-10-20T15:52:45;8.48;;;3.88;;
54853;SDS011;40747;49.480;8.658;2022-10-20T15:55:21;10.70;;;3.92;;
54853;SDS011;40747;49.480;8.658;2022-10-20T15:57:50;5.60;;;3.60;;
54853;SDS011;40747;49.480;8.658;2022-10-20T16:00:17;6.97;;;3.92;;
54853;SDS011;40747;49.480;8.658;2022-10-20T16:02:44;5.88;;;3.60;;
54853;SDS011;40747;49.480;8.658;2022-10-20T16:05:09;6.28;;;3.90;;
54853;SDS011;40747;49.480;8.658;2022-10-20T16:07:35;5.38;;;3.90;;
54853;SDS011;40747;49.480;8.658;2022-10-20T16:10:00;5.03;;;3.28;;
54853;SDS011;40747;49.480;8.658;2022-10-20T16:12:25;6.22;;;3.40;;
54853;SDS011;40747;49.480;8.658;2022-10-20T16:14:51;8.52;;;3.72;;
54853;SDS011;40747;49.480;8.658;2022-10-20T16:17:16;9.73;;;3.90;;
54853;SDS011;40747;49.480;8.658;2022-10-20T16:19:42;6.35;;;3.80;;
54853;SDS011;40747;49.480;8.658;2022-10-20T16:22:07;7.75;;;4.20;;
54853;SDS011;40747;49.480;8.658;2022-10-20T16:24:32;5.78;;;3.63;;
54853;SDS011;40747;49.480;8.658;2022-10-20T16:26:57;5.53;;;3.75;;
54853;SDS011;40747;49.480;8.658;2022-10-20T16:29:23;7.88;;;3.13;;
54853;SDS011;40747;49.480;8.658;2022-10-20T16:31:48;5.78;;;3.78;;
54853;SDS011;40747;49.480;8.658;2022-10-20T16:34:13;8.95;;;3.88;;
54853;SDS011;40747;49.480;8.658;2022-10-20T16:36:38;6.43;;;3.67;;
54853;SDS011;40747;49.480;8.658;2022-10-20T16:39:04;9.80;;;3.75;;
54853;SDS011;40747;49.480;8.658;2022-10-20T16:41:29;15.23;;;4.07;;
54853;SDS011;40747;49.480;8.658;2022-10-20T16:43:54;6.35;;;3.90;;
54853;SDS011;40747;49.480;8.658;2022-10-20T16:46:20;6.45;;;3.50;;
54853;SDS011;40747;49.480;8.658;2022-10-20T16:48:45;6.35;;;3.97;;
54853;SDS011;40747;49.480;8.658;2022-10-20T16:51:11;5.28;;;3.40;;
54853;SDS011;40747;49.480;8.658;2022-10-20T16:53:37;8.50;;;3.60;;
54853;SDS011;40747;49.480;8.658;2022-10-20T16:56:02;6.43;;;3.80;;